sensor_id;sensor_type;location;lat;lon;timestamp;P1;durP1;ratioP1;P2;durP2;ratioP2
25279;SDS011;13225;47.804;12.116;2023-08-20T00:01:26;7.05;;;4.10;;
25279;SDS011;13225;47.804;12.116;2023-08-20T00:03:53;7.32;;;3.95;;
25279;SDS011;13225;47.804;12.116;2023-08-20T00:06:19;9.75;;;3.83;;
25279;SDS011;13225;47.804;12.116;2023-08-20T00:08:45;10.20;;;4.80;;
25279;SDS011;13225;47.804;12.116;2023-08-20T00:11:11;5.97;;;3.60;;
25279;SDS011;13225;47.804;12.116;2023-08-20T00:13:37;7.45;;;4.07;;
25279;SDS011;13225;47.804;12.116;2023-08-20T00:16:04;8.25;;;4.28;;
25279;SDS011;13225;47.804;12.116;2023-08-20T00:18:30;8.63;;;4.18;;
25279;SDS011;13225;47.804;12.116;2023-08-20T00:20:57;6.53;;;3.88;;
25279;SDS011;13225;47.804;12.116;2023-08-20T00:23:25;8.88;;;4.15;;
25279;SDS011;13225;47.804;12.116;2023-08-20T00:25:51;6.40;;;4.00;;
25279;SDS011;13225;47.804;12.116;2023-08-20T00:28:19;7.63;;;4.03;;
25279;SDS011;13225;47.804;12.116;2023-08-20T00:30:46;8.00;;;4.03;;
25279;SDS011;13225;47.804;12.116;2023-08-20T00:33:11;7.38;;;3.70;;
25279;SDS011;13225;47.804;12.116;2023-08-20T00:35:37;9.90;;;4.03;;
25279;SDS011;13225;47.804;12.116;2023-08-20T00:38:03;8.70;;;4.03;;
25279;SDS011;13225;47.804;12.116;2023-08-20T00:40:29;8.75;;;4.22;;
25279;SDS011;13225;47.804;12.116;2023-08-20T00:42:55;9.60;;;4.13;;
25279;SDS011;13225;47.804;12.116;2023-08-20T00:45:21;9.68;;;4.20;;
25279;SDS011;13225;47.804;12.116;2023-08-20T00:47:47;8.40;;;4.60;;
25279;SDS011;13225;47.804;12.116;2023-08-20T00:50:13;11.05;;;4.57;;
25279;SDS011;13225;47.804;12.116;2023-08-20T00:52:39;6.82;;;4.63;;
25279;SDS011;13225;47.804;12.116;2023-08-20T00:55:07;6.95;;;4.68;;
25279;SDS011;13225;47.804;12.116;2023-08-20T00:57:34;7.45;;;4.60;;
25279;SDS011;13225;47.804;12.116;2023-08-20T01:00:00;8.70;;;4.43;;
25279;SDS011;13225;47.804;12.116;2023-08-20T01:02:30;8.30;;;5.00;;
25279;SDS011;13225;47.804;12.116;2023-08-20T01:04:56;9.15;;;4.80;;
25279;SDS011;13225;47.804;12.116;2023-08-20T01:07:39;9.45;;;4.60;;
25279;SDS011;13225;47.804;12.116;2023-08-20T01:10:34;8.35;;;3.95;;
25279;SDS011;13225;47.804;12.116;2023-08-20T01:13:40;6.38;;;4.30;;
25279;SDS011;13225;47.804;12.116;2023-08-20T01:16:05;6.68;;;4.25;;
25279;SDS011;13225;47.804;12.116;2023-08-20T01:18:31;8.68;;;4.25;;
25279;SDS011;13225;47.804;12.116;2023-08-20T01:21:01;7.32;;;4.47;;
25279;SDS011;13225;47.804;12.116;2023-08-20T01:26:13;9.00;;;4.30;;
25279;SDS011;13225;47.804;12.116;2023-08-20T01:28:51;7.68;;;4.63;;
25279;SDS011;13225;47.804;12.116;2023-08-20T01:31:17;8.82;;;4.93;;
25279;SDS011;13225;47.804;12.116;2023-08-20T01:33:44;7.13;;;4.85;;
25279;SDS011;13225;47.804;12.116;2023-08-20T01:36:10;8.27;;;4.40;;
25279;SDS011;13225;47.804;12.116;2023-08-20T01:38:36;11.32;;;4.38;;
25279;SDS011;13225;47.804;12.116;2023-08-20T01:41:03;7.72;;;4.38;;
25279;SDS011;13225;47.804;12.116;2023-08-20T01:43:29;8.15;;;5.40;;
25279;SDS011;13225;47.804;12.116;2023-08-20T01:45:54;7.97;;;5.05;;
25279;SDS011;13225;47.804;12.116;2023-08-20T01:48:20;9.90;;;5.22;;
25279;SDS011;13225;47.804;12.116;2023-08-20T01:50:45;6.65;;;4.57;;
25279;SDS011;13225;47.804;12.116;2023-08-20T01:53:11;7.35;;;4.82;;
25279;SDS011;13225;47.804;12.116;2023-08-20T01:55:37;7.88;;;5.00;;
25279;SDS011;13225;47.804;12.116;2023-08-20T01:58:03;7.43;;;4.97;;
25279;SDS011;13225;47.804;12.116;2023-08-20T02:00:29;8.93;;;4.95;;
25279;SDS011;13225;47.804;12.116;2023-08-20T02:02:55;7.72;;;4.35;;
25279;SDS011;13225;47.804;12.116;2023-08-20T02:05:21;11.43;;;4.80;;
25279;SDS011;13225;47.804;12.116;2023-08-20T02:07:47;6.35;;;4.10;;
25279;SDS011;13225;47.804;12.116;2023-08-20T02:10:12;8.27;;;4.70;;
25279;SDS011;13225;47.804;12.116;2023-08-20T02:12:39;9.65;;;4.93;;
25279;SDS011;13225;47.804;12.116;2023-08-20T02:15:05;13.95;;;5.10;;
25279;SDS011;13225;47.804;12.116;2023-08-20T02:17:32;11.75;;;4.75;;
25279;SDS011;13225;47.804;12.116;2023-08-20T02:19:57;8.27;;;4.40;;
25279;SDS011;13225;47.804;12.116;2023-08-20T02:22:23;7.60;;;5.00;;
25279;SDS011;13225;47.804;12.116;2023-08-20T02:24:48;9.75;;;4.45;;
25279;SDS011;13225;47.804;12.116;2023-08-20T02:27:14;9.13;;;4.88;;
25279;SDS011;13225;47.804;12.116;2023-08-20T02:29:39;7.88;;;4.72;;
25279;SDS011;13225;47.804;12.116;2023-08-20T02:32:05;8.15;;;4.20;;
25279;SDS011;13225;47.804;12.116;2023-08-20T02:34:31;9.82;;;5.00;;
25279;SDS011;13225;47.804;12.116;2023-08-20T02:36:56;9.63;;;4.30;;
25279;SDS011;13225;47.804;12.116;2023-08-20T02:39:22;10.38;;;4.45;;
25279;SDS011;13225;47.804;12.116;2023-08-20T02:41:49;8.93;;;4.97;;
25279;SDS011;13225;47.804;12.116;2023-08-20T02:44:14;8.52;;;4.93;;
25279;SDS011;13225;47.804;12.116;2023-08-20T02:46:40;7.75;;;5.47;;
25279;SDS011;13225;47.804;12.116;2023-08-20T02:49:06;8.68;;;5.40;;
25279;SDS011;13225;47.804;12.116;2023-08-20T02:51:31;9.13;;;5.18;;
25279;SDS011;13225;47.804;12.116;2023-08-20T02:53:57;7.60;;;4.63;;
25279;SDS011;13225;47.804;12.116;2023-08-20T02:56:22;6.55;;;4.38;;
25279;SDS011;13225;47.804;12.116;2023-08-20T02:58:48;9.23;;;4.63;;
25279;SDS011;13225;47.804;12.116;2023-08-20T03:01:17;10.45;;;4.88;;
25279;SDS011;13225;47.804;12.116;2023-08-20T03:03:44;11.50;;;5.30;;
25279;SDS011;13225;47.804;12.116;2023-08-20T03:06:09;8.55;;;5.13;;
25279;SDS011;13225;47.804;12.116;2023-08-20T03:08:35;10.40;;;5.57;;
25279;SDS011;13225;47.804;12.116;2023-08-20T03:11:00;8.65;;;4.80;;
25279;SDS011;13225;47.804;12.116;2023-08-20T03:13:26;9.52;;;4.90;;
25279;SDS011;13225;47.804;12.116;2023-08-20T03:15:51;10.38;;;4.90;;
25279;SDS011;13225;47.804;12.116;2023-08-20T03:18:17;8.43;;;4.60;;
25279;SDS011;13225;47.804;12.116;2023-08-20T03:20:42;8.43;;;4.85;;
25279;SDS011;13225;47.804;12.116;2023-08-20T03:23:08;9.00;;;5.20;;
25279;SDS011;13225;47.804;12.116;2023-08-20T03:25:33;8.13;;;4.60;;
25279;SDS011;13225;47.804;12.116;2023-08-20T03:28:04;6.30;;;4.47;;
25279;SDS011;13225;47.804;12.116;2023-08-20T03:30:30;8.57;;;5.07;;
25279;SDS011;13225;47.804;12.116;2023-08-20T03:32:56;10.48;;;5.38;;
25279;SDS011;13225;47.804;12.116;2023-08-20T03:35:22;8.45;;;4.72;;
25279;SDS011;13225;47.804;12.116;2023-08-20T03:37:47;8.23;;;4.97;;
25279;SDS011;13225;47.804;12.116;2023-08-20T03:40:13;11.50;;;5.53;;
25279;SDS011;13225;47.804;12.116;2023-08-20T03:42:39;8.57;;;5.55;;
25279;SDS011;13225;47.804;12.116;2023-08-20T03:45:05;8.48;;;5.45;;
25279;SDS011;13225;47.804;12.116;2023-08-20T03:47:31;9.23;;;5.40;;
25279;SDS011;13225;47.804;12.116;2023-08-20T03:49:56;9.38;;;5.78;;
25279;SDS011;13225;47.804;12.116;2023-08-20T03:52:22;6.53;;;4.90;;
25279;SDS011;13225;47.804;12.116;2023-08-20T03:54:47;10.68;;;5.05;;
25279;SDS011;13225;47.804;12.116;2023-08-20T03:57:13;7.85;;;5.00;;
25279;SDS011;13225;47.804;12.116;2023-08-20T03:59:38;12.32;;;5.35;;
25279;SDS011;13225;47.804;12.116;2023-08-20T04:02:04;12.75;;;5.60;;
25279;SDS011;13225;47.804;12.116;2023-08-20T04:04:30;8.80;;;4.55;;
25279;SDS011;13225;47.804;12.116;2023-08-20T04:06:55;11.23;;;4.57;;
25279;SDS011;13225;47.804;12.116;2023-08-20T04:09:21;9.80;;;4.80;;
25279;SDS011;13225;47.804;12.116;2023-08-20T04:14:18;11.38;;;5.25;;
25279;SDS011;13225;47.804;12.116;2023-08-20T04:16:44;6.20;;;4.97;;
25279;SDS011;13225;47.804;12.116;2023-08-20T04:19:09;12.77;;;5.38;;
25279;SDS011;13225;47.804;12.116;2023-08-20T04:21:35;10.48;;;5.20;;
25279;SDS011;13225;47.804;12.116;2023-08-20T04:24:00;11.05;;;4.88;;
25279;SDS011;13225;47.804;12.116;2023-08-20T04:26:26;12.18;;;5.05;;
25279;SDS011;13225;47.804;12.116;2023-08-20T04:28:51;8.00;;;5.30;;
25279;SDS011;13225;47.804;12.116;2023-08-20T04:31:17;10.27;;;4.75;;
25279;SDS011;13225;47.804;12.116;2023-08-20T04:33:43;12.85;;;5.75;;
25279;SDS011;13225;47.804;12.116;2023-08-20T04:36:10;11.40;;;5.28;;
25279;SDS011;13225;47.804;12.116;2023-08-20T04:38:35;9.98;;;5.35;;
25279;SDS011;13225;47.804;12.116;2023-08-20T04:41:01;11.35;;;5.78;;
25279;SDS011;13225;47.804;12.116;2023-08-20T04:43:27;8.75;;;5.00;;
25279;SDS011;13225;47.804;12.116;2023-08-20T04:45:53;7.22;;;4.97;;
25279;SDS011;13225;47.804;12.116;2023-08-20T04:48:18;11.57;;;5.82;;
25279;SDS011;13225;47.804;12.116;2023-08-20T04:50:44;9.90;;;5.53;;
25279;SDS011;13225;47.804;12.116;2023-08-20T04:53:09;10.73;;;5.30;;
25279;SDS011;13225;47.804;12.116;2023-08-20T04:55:35;7.55;;;5.13;;
25279;SDS011;13225;47.804;12.116;2023-08-20T04:58:01;5.97;;;4.82;;
25279;SDS011;13225;47.804;12.116;2023-08-20T05:00:26;11.07;;;5.05;;
25279;SDS011;13225;47.804;12.116;2023-08-20T05:02:52;9.15;;;4.80;;
25279;SDS011;13225;47.804;12.116;2023-08-20T05:05:18;9.90;;;4.90;;
25279;SDS011;13225;47.804;12.116;2023-08-20T05:07:43;9.60;;;5.60;;
25279;SDS011;13225;47.804;12.116;2023-08-20T05:10:09;9.18;;;5.15;;
25279;SDS011;13225;47.804;12.116;2023-08-20T05:12:35;9.10;;;5.50;;
25279;SDS011;13225;47.804;12.116;2023-08-20T05:15:02;7.82;;;4.68;;
25279;SDS011;13225;47.804;12.116;2023-08-20T05:17:27;9.80;;;5.25;;
25279;SDS011;13225;47.804;12.116;2023-08-20T05:19:53;7.22;;;4.60;;
25279;SDS011;13225;47.804;12.116;2023-08-20T05:22:19;9.40;;;4.78;;
25279;SDS011;13225;47.804;12.116;2023-08-20T05:24:45;7.05;;;4.30;;
25279;SDS011;13225;47.804;12.116;2023-08-20T05:27:16;9.30;;;5.05;;
25279;SDS011;13225;47.804;12.116;2023-08-20T05:29:42;7.83;;;4.90;;
25279;SDS011;13225;47.804;12.116;2023-08-20T05:32:08;8.40;;;5.07;;
25279;SDS011;13225;47.804;12.116;2023-08-20T05:34:34;8.57;;;4.93;;
25279;SDS011;13225;47.804;12.116;2023-08-20T05:37:00;6.82;;;4.50;;
25279;SDS011;13225;47.804;12.116;2023-08-20T05:39:26;8.90;;;4.85;;
25279;SDS011;13225;47.804;12.116;2023-08-20T05:41:52;8.40;;;4.65;;
25279;SDS011;13225;47.804;12.116;2023-08-20T05:44:21;9.00;;;5.13;;
25279;SDS011;13225;47.804;12.116;2023-08-20T05:46:47;7.43;;;5.18;;
25279;SDS011;13225;47.804;12.116;2023-08-20T05:49:16;6.50;;;5.10;;
25279;SDS011;13225;47.804;12.116;2023-08-20T05:51:42;9.68;;;5.57;;
25279;SDS011;13225;47.804;12.116;2023-08-20T05:54:08;7.68;;;5.05;;
25279;SDS011;13225;47.804;12.116;2023-08-20T05:56:33;7.70;;;5.32;;
25279;SDS011;13225;47.804;12.116;2023-08-20T05:58:59;9.25;;;5.25;;
25279;SDS011;13225;47.804;12.116;2023-08-20T06:01:25;12.63;;;5.85;;
25279;SDS011;13225;47.804;12.116;2023-08-20T06:03:50;10.35;;;5.25;;
25279;SDS011;13225;47.804;12.116;2023-08-20T06:06:16;7.80;;;5.13;;
25279;SDS011;13225;47.804;12.116;2023-08-20T06:08:41;8.73;;;4.85;;
25279;SDS011;13225;47.804;12.116;2023-08-20T06:11:07;8.15;;;5.70;;
25279;SDS011;13225;47.804;12.116;2023-08-20T06:13:32;12.40;;;6.15;;
25279;SDS011;13225;47.804;12.116;2023-08-20T06:15:58;9.25;;;6.05;;
25279;SDS011;13225;47.804;12.116;2023-08-20T06:18:23;11.02;;;5.68;;
25279;SDS011;13225;47.804;12.116;2023-08-20T06:20:49;13.55;;;6.63;;
25279;SDS011;13225;47.804;12.116;2023-08-20T06:25:52;8.15;;;4.70;;
25279;SDS011;13225;47.804;12.116;2023-08-20T06:28:19;8.90;;;5.45;;
25279;SDS011;13225;47.804;12.116;2023-08-20T06:30:45;9.43;;;5.20;;
25279;SDS011;13225;47.804;12.116;2023-08-20T06:33:11;11.30;;;5.20;;
25279;SDS011;13225;47.804;12.116;2023-08-20T06:35:37;9.88;;;5.70;;
25279;SDS011;13225;47.804;12.116;2023-08-20T06:38:02;10.88;;;5.50;;
25279;SDS011;13225;47.804;12.116;2023-08-20T06:40:28;8.60;;;5.15;;
25279;SDS011;13225;47.804;12.116;2023-08-20T06:42:54;9.43;;;5.60;;
25279;SDS011;13225;47.804;12.116;2023-08-20T06:45:19;11.45;;;5.80;;
25279;SDS011;13225;47.804;12.116;2023-08-20T06:47:45;9.13;;;5.18;;
25279;SDS011;13225;47.804;12.116;2023-08-20T06:50:10;10.77;;;5.40;;
25279;SDS011;13225;47.804;12.116;2023-08-20T06:52:36;8.95;;;4.90;;
25279;SDS011;13225;47.804;12.116;2023-08-20T06:55:02;10.32;;;5.28;;
25279;SDS011;13225;47.804;12.116;2023-08-20T06:57:28;9.82;;;5.63;;
25279;SDS011;13225;47.804;12.116;2023-08-20T07:02:23;7.60;;;5.05;;
25279;SDS011;13225;47.804;12.116;2023-08-20T07:04:49;8.57;;;4.93;;
25279;SDS011;13225;47.804;12.116;2023-08-20T07:07:14;9.48;;;5.03;;
25279;SDS011;13225;47.804;12.116;2023-08-20T07:09:40;7.55;;;4.80;;
25279;SDS011;13225;47.804;12.116;2023-08-20T07:12:06;10.02;;;5.53;;
25279;SDS011;13225;47.804;12.116;2023-08-20T07:14:32;10.40;;;5.38;;
25279;SDS011;13225;47.804;12.116;2023-08-20T07:16:58;9.32;;;5.30;;
25279;SDS011;13225;47.804;12.116;2023-08-20T07:19:25;10.80;;;5.10;;
25279;SDS011;13225;47.804;12.116;2023-08-20T07:21:50;7.28;;;4.93;;
25279;SDS011;13225;47.804;12.116;2023-08-20T07:24:16;11.57;;;5.65;;
25279;SDS011;13225;47.804;12.116;2023-08-20T07:26:41;9.50;;;5.15;;
25279;SDS011;13225;47.804;12.116;2023-08-20T07:29:07;11.88;;;5.35;;
25279;SDS011;13225;47.804;12.116;2023-08-20T07:31:33;8.38;;;5.68;;
25279;SDS011;13225;47.804;12.116;2023-08-20T07:34:00;10.65;;;5.20;;
25279;SDS011;13225;47.804;12.116;2023-08-20T07:36:26;9.38;;;4.97;;
25279;SDS011;13225;47.804;12.116;2023-08-20T07:38:52;8.55;;;4.55;;
25279;SDS011;13225;47.804;12.116;2023-08-20T07:41:18;11.15;;;5.03;;
25279;SDS011;13225;47.804;12.116;2023-08-20T07:43:45;10.55;;;4.82;;
25279;SDS011;13225;47.804;12.116;2023-08-20T07:46:11;7.97;;;5.07;;
25279;SDS011;13225;47.804;12.116;2023-08-20T07:48:37;8.50;;;5.05;;
25279;SDS011;13225;47.804;12.116;2023-08-20T07:51:02;9.68;;;5.63;;
25279;SDS011;13225;47.804;12.116;2023-08-20T07:53:29;7.25;;;5.00;;
25279;SDS011;13225;47.804;12.116;2023-08-20T07:55:55;6.97;;;4.90;;
25279;SDS011;13225;47.804;12.116;2023-08-20T07:58:20;9.55;;;5.10;;
25279;SDS011;13225;47.804;12.116;2023-08-20T08:00:46;9.18;;;4.90;;
25279;SDS011;13225;47.804;12.116;2023-08-20T08:03:12;8.27;;;5.30;;
25279;SDS011;13225;47.804;12.116;2023-08-20T08:05:39;7.03;;;4.68;;
25279;SDS011;13225;47.804;12.116;2023-08-20T08:08:05;6.25;;;4.93;;
25279;SDS011;13225;47.804;12.116;2023-08-20T08:10:31;8.57;;;5.50;;
25279;SDS011;13225;47.804;12.116;2023-08-20T08:12:57;7.38;;;4.90;;
25279;SDS011;13225;47.804;12.116;2023-08-20T08:15:25;8.82;;;4.78;;
25279;SDS011;13225;47.804;12.116;2023-08-20T08:17:51;7.88;;;4.90;;
25279;SDS011;13225;47.804;12.116;2023-08-20T08:20:16;8.45;;;5.57;;
25279;SDS011;13225;47.804;12.116;2023-08-20T08:22:42;9.93;;;5.00;;
25279;SDS011;13225;47.804;12.116;2023-08-20T08:25:07;8.90;;;4.57;;
25279;SDS011;13225;47.804;12.116;2023-08-20T08:27:33;12.10;;;5.15;;
25279;SDS011;13225;47.804;12.116;2023-08-20T08:29:58;11.38;;;5.13;;
25279;SDS011;13225;47.804;12.116;2023-08-20T08:32:26;6.72;;;5.13;;
25279;SDS011;13225;47.804;12.116;2023-08-20T08:34:53;10.23;;;5.07;;
25279;SDS011;13225;47.804;12.116;2023-08-20T08:37:24;8.32;;;5.22;;
25279;SDS011;13225;47.804;12.116;2023-08-20T08:39:52;7.45;;;5.00;;
25279;SDS011;13225;47.804;12.116;2023-08-20T08:42:17;7.03;;;5.25;;
25279;SDS011;13225;47.804;12.116;2023-08-20T08:44:47;9.85;;;5.22;;
25279;SDS011;13225;47.804;12.116;2023-08-20T08:47:13;9.18;;;5.32;;
25279;SDS011;13225;47.804;12.116;2023-08-20T08:49:39;10.20;;;5.45;;
25279;SDS011;13225;47.804;12.116;2023-08-20T08:52:06;9.48;;;5.20;;
25279;SDS011;13225;47.804;12.116;2023-08-20T08:54:34;9.38;;;5.50;;
25279;SDS011;13225;47.804;12.116;2023-08-20T08:57:00;8.13;;;5.57;;
25279;SDS011;13225;47.804;12.116;2023-08-20T08:59:26;9.43;;;5.97;;
25279;SDS011;13225;47.804;12.116;2023-08-20T09:01:52;8.10;;;5.50;;
25279;SDS011;13225;47.804;12.116;2023-08-20T09:04:18;8.60;;;5.70;;
25279;SDS011;13225;47.804;12.116;2023-08-20T09:06:50;10.68;;;6.18;;
25279;SDS011;13225;47.804;12.116;2023-08-20T09:09:18;8.30;;;4.90;;
25279;SDS011;13225;47.804;12.116;2023-08-20T09:11:44;7.65;;;4.95;;
25279;SDS011;13225;47.804;12.116;2023-08-20T09:14:20;8.63;;;5.35;;
25279;SDS011;13225;47.804;12.116;2023-08-20T09:16:59;9.50;;;5.30;;
25279;SDS011;13225;47.804;12.116;2023-08-20T09:19:29;9.80;;;4.60;;
25279;SDS011;13225;47.804;12.116;2023-08-20T09:22:02;7.20;;;5.18;;
25279;SDS011;13225;47.804;12.116;2023-08-20T09:25:01;9.55;;;5.55;;
25279;SDS011;13225;47.804;12.116;2023-08-20T09:27:21;8.55;;;5.28;;
25279;SDS011;13225;47.804;12.116;2023-08-20T09:29:48;8.07;;;5.20;;
25279;SDS011;13225;47.804;12.116;2023-08-20T09:32:16;8.77;;;5.05;;
25279;SDS011;13225;47.804;12.116;2023-08-20T09:34:46;9.57;;;5.30;;
25279;SDS011;13225;47.804;12.116;2023-08-20T09:37:16;8.32;;;5.15;;
25279;SDS011;13225;47.804;12.116;2023-08-20T09:39:44;6.90;;;4.93;;
25279;SDS011;13225;47.804;12.116;2023-08-20T09:42:11;7.32;;;4.78;;
25279;SDS011;13225;47.804;12.116;2023-08-20T09:44:38;7.85;;;5.25;;
25279;SDS011;13225;47.804;12.116;2023-08-20T09:47:12;6.85;;;5.13;;
25279;SDS011;13225;47.804;12.116;2023-08-20T09:49:39;9.30;;;5.15;;
25279;SDS011;13225;47.804;12.116;2023-08-20T09:52:07;7.38;;;4.30;;
25279;SDS011;13225;47.804;12.116;2023-08-20T09:57:41;9.73;;;5.53;;
25279;SDS011;13225;47.804;12.116;2023-08-20T10:00:08;11.85;;;4.45;;
25279;SDS011;13225;47.804;12.116;2023-08-20T10:02:35;9.02;;;4.82;;
25279;SDS011;13225;47.804;12.116;2023-08-20T10:05:02;11.20;;;5.70;;
25279;SDS011;13225;47.804;12.116;2023-08-20T10:07:30;8.20;;;4.53;;
25279;SDS011;13225;47.804;12.116;2023-08-20T10:09:56;6.80;;;5.18;;
25279;SDS011;13225;47.804;12.116;2023-08-20T10:12:25;7.47;;;5.25;;
25279;SDS011;13225;47.804;12.116;2023-08-20T10:14:51;12.15;;;5.10;;
25279;SDS011;13225;47.804;12.116;2023-08-20T10:17:17;7.20;;;5.10;;
25279;SDS011;13225;47.804;12.116;2023-08-20T10:19:43;8.30;;;5.13;;
25279;SDS011;13225;47.804;12.116;2023-08-20T10:22:08;8.02;;;5.18;;
25279;SDS011;13225;47.804;12.116;2023-08-20T10:24:47;7.22;;;5.13;;
25279;SDS011;13225;47.804;12.116;2023-08-20T10:27:23;9.23;;;6.03;;
25279;SDS011;13225;47.804;12.116;2023-08-20T10:29:51;6.30;;;4.80;;
25279;SDS011;13225;47.804;12.116;2023-08-20T10:32:18;10.02;;;5.18;;
25279;SDS011;13225;47.804;12.116;2023-08-20T10:34:49;10.05;;;5.38;;
25279;SDS011;13225;47.804;12.116;2023-08-20T10:37:20;11.82;;;5.18;;
25279;SDS011;13225;47.804;12.116;2023-08-20T10:39:55;13.52;;;4.90;;
25279;SDS011;13225;47.804;12.116;2023-08-20T10:42:25;9.23;;;5.38;;
25279;SDS011;13225;47.804;12.116;2023-08-20T10:45:02;8.85;;;5.68;;
25279;SDS011;13225;47.804;12.116;2023-08-20T10:47:43;9.77;;;5.40;;
25279;SDS011;13225;47.804;12.116;2023-08-20T10:50:10;5.85;;;4.75;;
25279;SDS011;13225;47.804;12.116;2023-08-20T10:52:55;9.45;;;5.63;;
25279;SDS011;13225;47.804;12.116;2023-08-20T10:55:24;9.60;;;5.15;;
25279;SDS011;13225;47.804;12.116;2023-08-20T10:57:56;8.25;;;5.20;;
25279;SDS011;13225;47.804;12.116;2023-08-20T11:00:24;9.00;;;5.30;;
25279;SDS011;13225;47.804;12.116;2023-08-20T11:02:49;6.95;;;4.80;;
25279;SDS011;13225;47.804;12.116;2023-08-20T11:05:17;7.10;;;4.90;;
25279;SDS011;13225;47.804;12.116;2023-08-20T11:07:44;7.07;;;4.90;;
25279;SDS011;13225;47.804;12.116;2023-08-20T11:10:12;7.20;;;4.95;;
25279;SDS011;13225;47.804;12.116;2023-08-20T11:12:47;5.25;;;4.53;;
25279;SDS011;13225;47.804;12.116;2023-08-20T11:15:13;8.57;;;4.55;;
25279;SDS011;13225;47.804;12.116;2023-08-20T11:17:45;10.50;;;4.95;;
25279;SDS011;13225;47.804;12.116;2023-08-20T11:20:10;6.18;;;4.78;;
25279;SDS011;13225;47.804;12.116;2023-08-20T11:22:39;8.52;;;4.50;;
25279;SDS011;13225;47.804;12.116;2023-08-20T11:25:06;6.15;;;3.90;;
25279;SDS011;13225;47.804;12.116;2023-08-20T11:27:39;5.10;;;3.83;;
25279;SDS011;13225;47.804;12.116;2023-08-20T11:30:06;5.57;;;3.70;;
25279;SDS011;13225;47.804;12.116;2023-08-20T11:32:32;6.35;;;3.83;;
25279;SDS011;13225;47.804;12.116;2023-08-20T11:35:04;10.63;;;4.45;;
25279;SDS011;13225;47.804;12.116;2023-08-20T11:37:30;4.30;;;3.90;;
25279;SDS011;13225;47.804;12.116;2023-08-20T11:39:56;4.07;;;3.50;;
25279;SDS011;13225;47.804;12.116;2023-08-20T11:42:24;5.07;;;4.15;;
25279;SDS011;13225;47.804;12.116;2023-08-20T11:44:55;5.93;;;3.65;;
25279;SDS011;13225;47.804;12.116;2023-08-20T11:50:04;5.93;;;3.40;;
25279;SDS011;13225;47.804;12.116;2023-08-20T11:52:41;6.80;;;3.08;;
25279;SDS011;13225;47.804;12.116;2023-08-20T11:55:10;3.78;;;3.13;;
25279;SDS011;13225;47.804;12.116;2023-08-20T11:57:35;5.03;;;3.28;;
25279;SDS011;13225;47.804;12.116;2023-08-20T12:00:03;4.28;;;3.72;;
25279;SDS011;13225;47.804;12.116;2023-08-20T12:02:30;6.20;;;3.20;;
25279;SDS011;13225;47.804;12.116;2023-08-20T12:04:55;5.20;;;3.58;;
25279;SDS011;13225;47.804;12.116;2023-08-20T12:07:26;4.13;;;3.13;;
25279;SDS011;13225;47.804;12.116;2023-08-20T12:09:53;4.82;;;3.75;;
25279;SDS011;13225;47.804;12.116;2023-08-20T12:14:48;6.50;;;3.75;;
25279;SDS011;13225;47.804;12.116;2023-08-20T12:17:17;4.38;;;3.50;;
25279;SDS011;13225;47.804;12.116;2023-08-20T12:19:44;4.38;;;3.60;;
25279;SDS011;13225;47.804;12.116;2023-08-20T12:22:10;4.32;;;3.70;;
25279;SDS011;13225;47.804;12.116;2023-08-20T12:24:36;4.80;;;3.67;;
25279;SDS011;13225;47.804;12.116;2023-08-20T12:27:04;3.40;;;3.10;;
25279;SDS011;13225;47.804;12.116;2023-08-20T12:29:29;5.22;;;3.55;;
25279;SDS011;13225;47.804;12.116;2023-08-20T12:31:55;4.20;;;3.60;;
25279;SDS011;13225;47.804;12.116;2023-08-20T12:34:21;6.78;;;4.15;;
25279;SDS011;13225;47.804;12.116;2023-08-20T12:36:46;5.45;;;3.83;;
25279;SDS011;13225;47.804;12.116;2023-08-20T12:39:13;4.07;;;3.75;;
25279;SDS011;13225;47.804;12.116;2023-08-20T12:41:39;3.90;;;3.30;;
25279;SDS011;13225;47.804;12.116;2023-08-20T12:44:04;3.85;;;3.55;;
25279;SDS011;13225;47.804;12.116;2023-08-20T12:46:30;4.68;;;3.42;;
25279;SDS011;13225;47.804;12.116;2023-08-20T12:48:56;3.38;;;3.08;;
25279;SDS011;13225;47.804;12.116;2023-08-20T12:51:22;4.03;;;3.60;;
25279;SDS011;13225;47.804;12.116;2023-08-20T12:53:48;4.65;;;3.45;;
25279;SDS011;13225;47.804;12.116;2023-08-20T12:56:13;3.97;;;3.63;;
25279;SDS011;13225;47.804;12.116;2023-08-20T12:58:40;4.45;;;3.35;;
25279;SDS011;13225;47.804;12.116;2023-08-20T13:01:06;4.88;;;3.60;;
25279;SDS011;13225;47.804;12.116;2023-08-20T13:03:32;4.45;;;3.63;;
25279;SDS011;13225;47.804;12.116;2023-08-20T13:06:00;5.57;;;3.60;;
25279;SDS011;13225;47.804;12.116;2023-08-20T13:08:26;3.90;;;3.38;;
25279;SDS011;13225;47.804;12.116;2023-08-20T13:10:53;4.05;;;3.20;;
25279;SDS011;13225;47.804;12.116;2023-08-20T13:13:22;3.53;;;3.22;;
25279;SDS011;13225;47.804;12.116;2023-08-20T13:15:49;5.57;;;3.30;;
25279;SDS011;13225;47.804;12.116;2023-08-20T13:18:16;6.40;;;3.30;;
25279;SDS011;13225;47.804;12.116;2023-08-20T13:20:42;4.93;;;3.72;;
25279;SDS011;13225;47.804;12.116;2023-08-20T13:23:10;3.58;;;3.25;;
25279;SDS011;13225;47.804;12.116;2023-08-20T13:25:36;3.80;;;3.47;;
25279;SDS011;13225;47.804;12.116;2023-08-20T13:28:02;5.45;;;4.07;;
25279;SDS011;13225;47.804;12.116;2023-08-20T13:30:28;4.35;;;3.72;;
25279;SDS011;13225;47.804;12.116;2023-08-20T13:32:54;4.88;;;3.75;;
25279;SDS011;13225;47.804;12.116;2023-08-20T13:35:19;4.15;;;3.42;;
25279;SDS011;13225;47.804;12.116;2023-08-20T13:37:45;3.60;;;3.30;;
25279;SDS011;13225;47.804;12.116;2023-08-20T13:40:22;3.63;;;3.30;;
25279;SDS011;13225;47.804;12.116;2023-08-20T13:42:47;5.22;;;3.53;;
25279;SDS011;13225;47.804;12.116;2023-08-20T13:45:13;4.47;;;3.45;;
25279;SDS011;13225;47.804;12.116;2023-08-20T13:47:39;3.67;;;3.10;;
25279;SDS011;13225;47.804;12.116;2023-08-20T13:50:04;4.93;;;2.80;;
25279;SDS011;13225;47.804;12.116;2023-08-20T13:52:30;5.88;;;3.03;;
25279;SDS011;13225;47.804;12.116;2023-08-20T13:54:56;4.22;;;3.50;;
25279;SDS011;13225;47.804;12.116;2023-08-20T13:57:21;5.75;;;3.50;;
25279;SDS011;13225;47.804;12.116;2023-08-20T13:59:47;6.25;;;3.47;;
25279;SDS011;13225;47.804;12.116;2023-08-20T14:02:13;3.72;;;3.33;;
25279;SDS011;13225;47.804;12.116;2023-08-20T14:04:38;4.38;;;2.83;;
25279;SDS011;13225;47.804;12.116;2023-08-20T14:07:04;3.38;;;3.00;;
25279;SDS011;13225;47.804;12.116;2023-08-20T14:09:29;4.78;;;3.30;;
25279;SDS011;13225;47.804;12.116;2023-08-20T14:11:55;4.97;;;3.40;;
25279;SDS011;13225;47.804;12.116;2023-08-20T14:14:20;3.63;;;3.33;;
25279;SDS011;13225;47.804;12.116;2023-08-20T14:16:46;3.50;;;3.20;;
25279;SDS011;13225;47.804;12.116;2023-08-20T14:19:12;7.18;;;3.97;;
25279;SDS011;13225;47.804;12.116;2023-08-20T14:21:37;4.72;;;3.28;;
25279;SDS011;13225;47.804;12.116;2023-08-20T14:24:03;3.88;;;3.53;;
25279;SDS011;13225;47.804;12.116;2023-08-20T14:26:28;5.00;;;3.17;;
25279;SDS011;13225;47.804;12.116;2023-08-20T14:28:54;4.57;;;3.35;;
25279;SDS011;13225;47.804;12.116;2023-08-20T14:31:20;5.22;;;3.42;;
25279;SDS011;13225;47.804;12.116;2023-08-20T14:33:45;4.15;;;3.75;;
25279;SDS011;13225;47.804;12.116;2023-08-20T14:36:11;6.10;;;3.50;;
25279;SDS011;13225;47.804;12.116;2023-08-20T14:38:37;5.45;;;3.70;;
25279;SDS011;13225;47.804;12.116;2023-08-20T14:41:02;6.93;;;3.90;;
25279;SDS011;13225;47.804;12.116;2023-08-20T14:43:28;4.30;;;3.80;;
25279;SDS011;13225;47.804;12.116;2023-08-20T14:45:54;5.63;;;3.85;;
25279;SDS011;13225;47.804;12.116;2023-08-20T14:48:20;3.92;;;3.53;;
25279;SDS011;13225;47.804;12.116;2023-08-20T14:50:50;5.00;;;4.10;;